Date,TemperatureHighF,TemperatureAvgF,TemperatureLowF,DewpointHighF,DewpointAvgF,DewpointLowF,HumidityHigh,HumidityAvg,HumidityLow,PressureMaxIn,PressureMinIn,WindSpeedMaxMPH,WindSpeedAvgMPH,GustSpeedMaxMPH,PrecipitationSumIn
2019-1-1,47.3,44.8,42.2,46.0,41.6,33.1,96,88,69,30.49,30.34,11,8,17,0.05
2019-1-2,43.6,41.0,38.5,37.2,34.8,32.2,86,80,69,30.68,30.49,9,5,16,0.00
2019-1-3,42.5,39.6,36.7,37.4,35.9,34.3,92,86,80,30.71,30.66,6,3,8,0.00
2019-1-4,41.5,39.8,38.2,39.6,36.9,34.9,95,91,85,30.70,30.53,10,5,13,0.00
2019-1-5,44.8,43.2,41.5,43.1,41.2,39.3,97,92,88,30.52,30.45,10,7,15,0.01
2019-1-6,44.3,42.6,40.9,41.3,39.2,38.1,94,89,83,30.55,30.47,7,4,10,0.00
2019-1-7,49.1,42.3,35.5,47.1,41.1,33.6,97,94,89,30.55,30.10,14,7,20,0.13
2019-1-8,49.2,44.7,40.1,46.4,39.5,36.8,91,83,77,30.10,30.00,16,11,25,0.13
2019-1-9,44.6,39.9,35.3,37.9,34.3,30.9,91,82,66,30.26,30.04,11,7,17,0.02
2019-1-10,39.7,35.4,31.1,35.2,32.4,29.3,95,89,76,30.36,30.26,6,3,8,0.05
2019-1-11,46.5,41.0,35.4,44.9,40.8,34.1,98,96,93,30.31,30.23,8,6,13,0.13
2019-1-12,46.0,44.3,42.6,44.7,42.1,39.2,96,93,86,30.26,29.92,13,8,19,0.31
2019-1-13,49.4,47.3,45.2,46.7,45.1,41.0,97,92,81,29.91,29.61,16,10,29,0.24
2019-1-14,45.9,39.9,33.9,41.7,37.9,32.1,94,88,75,30.14,29.68,12,6,18,0.29
2019-1-15,45.0,40.0,34.9,41.6,38.6,33.2,96,90,84,30.14,29.96,14,8,19,0.01
2019-1-16,44.8,43.0,41.3,41.9,39.1,36.7,94,86,80,29.96,29.55,15,11,24,0.06
2019-1-17,41.7,37.6,33.4,40.4,36.1,32.1,95,93,80,29.92,29.56,12,7,16,0.28
2019-1-18,38.2,31.5,24.7,35.0,29.1,23.5,97,95,87,30.14,29.92,6,3,9,0.02
2019-1-19,37.1,31.2,25.3,30.8,27.0,23.8,97,89,76,30.09,29.92,7,3,11,0.00
2019-1-20,35.7,28.7,21.7,26.3,22.9,19.7,93,83,61,30.19,29.94,6,2,9,0.00
2019-1-21,38.9,28.2,17.4,28.6,21.7,15.7,100,86,61,30.23,30.02,6,2,7,0.00
2019-1-22,29.9,26.1,22.4,28.4,24.8,20.4,95,91,77,30.02,29.51,9,5,13,0.20
2019-1-23,32.5,26.6,20.8,28.7,25.4,19.4,96,89,80,29.72,29.45,6,4,8,0.00
2019-1-24,28.9,27.3,25.7,25.7,23.6,21.6,89,85,81,29.95,29.72,5,2,9,0.00
2019-1-25,40.3,33.9,27.5,39.8,30.1,24.4,98,93,88,29.99,29.80,11,5,14,0.06
2019-1-26,46.3,43.3,40.3,43.2,42.4,39.8,98,93,86,29.81,29.30,14,10,21,0.02
2019-1-27,44.3,41.1,37.9,42.9,40.0,35.5,96,93,86,29.30,29.03,15,9,17,0.32
2019-1-28,42.8,38.8,34.9,39.0,35.3,32.1,96,89,67,29.69,29.13,18,9,26,0.30
2019-1-29,39.8,35.7,31.6,33.5,30.7,28.0,96,86,68,29.72,29.39,10,6,14,0.01
2019-1-30,35.5,33.2,31.0,32.3,29.8,27.9,96,88,80,29.39,29.28,8,4,9,0.01
2019-1-31,31.9,29.5,27.1,30.6,27.9,26.0,97,96,94,29.44,29.24,8,4,11,0.00
2019-2-1,37.1,33.4,29.8,36.3,32.8,28.2,97,96,89,29.29,29.14,9,3,16,0.15
2019-2-2,36.0,34.3,32.7,35.0,33.7,31.4,97,96,95,29.85,29.28,6,3,9,0.26
2019-2-3,43.2,37.2,31.2,36.1,33.2,29.7,97,89,72,30.30,29.85,7,4,10,0.01
2019-2-4,39.7,35.1,30.5,35.0,31.7,28.6,96,88,74,30.30,30.18,16,9,23,0.02
2019-2-5,41.1,38.1,35.1,39.5,36.6,33.7,97,95,90,30.35,30.22,10,5,12,0.01
2019-2-6,45.1,40.0,35.0,43.2,37.7,30.9,97,90,82,30.29,29.94,8,6,12,0.19
2019-2-7,50.3,47.0,43.7,46.0,41.3,38.3,97,83,65,29.94,29.70,19,12,27,0.16
2019-2-8,49.1,45.2,41.4,44.1,42.0,38.1,92,86,80,29.89,29.50,18,12,30,0.10
2019-2-9,50.6,47.8,45.0,44.1,41.1,38.7,92,79,67,29.73,29.47,23,14,30,0.02
2019-2-10,49.0,43.5,37.9,47.7,41.6,35.8,99,91,80,29.68,29.19,16,10,22,1.02
2019-2-11,46.8,40.8,34.9,41.5,36.8,32.5,94,86,69,30.44,29.65,12,6,17,0.10
2019-2-12,47.2,39.7,32.2,40.4,36.0,30.8,96,88,74,30.55,30.44,10,6,13,0.01
2019-2-13,47.3,41.8,36.2,40.5,35.9,33.5,91,87,75,30.60,30.55,9,5,13,0.00
2019-2-14,55.6,42.2,28.8,38.4,33.0,27.5,97,81,48,30.60,30.49,4,2,6,0.00
2019-2-15,62.4,44.8,27.3,40.6,33.0,26.1,97,79,37,30.50,30.29,5,3,7,0.00
2019-2-16,58.8,45.3,31.9,42.8,35.7,29.7,94,80,52,30.30,30.24,8,3,9,0.00
2019-2-17,63.8,47.0,30.2,43.0,35.3,28.9,97,75,40,30.24,30.05,7,3,9,0.01
2019-2-18,62.0,46.2,30.3,41.3,34.9,28.3,95,74,41,30.10,29.95,7,4,8,0.00
2019-2-19,52.2,45.6,38.9,42.9,39.5,34.8,94,80,63,30.14,29.97,14,7,18,0.00
2019-2-20,52.7,45.1,37.5,42.0,38.0,33.9,90,79,63,30.23,30.13,10,5,13,0.00
2019-2-21,54.8,46.1,37.4,47.0,42.6,34.9,96,87,70,30.44,30.23,11,6,14,0.05
2019-2-22,52.2,47.2,42.2,49.2,45.6,40.9,100,93,84,30.65,30.44,6,3,7,0.00
2019-2-23,53.9,45.2,36.4,43.0,37.7,31.0,98,81,54,30.66,30.59,8,4,13,0.02
2019-2-24,59.7,44.2,28.8,35.6,31.0,26.4,94,65,29,30.65,30.59,4,2,7,0.00
2019-2-25,65.2,49.1,33.0,40.5,33.7,27.5,90,64,37,30.67,30.58,6,2,8,0.00
2019-2-26,66.7,49.0,31.4,45.5,37.6,29.9,96,76,41,30.58,30.45,4,2,6,0.00
2019-2-27,69.3,50.1,30.8,45.6,38.1,29.5,98,74,37,30.45,30.10,7,2,8,0.00
2019-2-28,55.3,45.7,36.1,47.6,42.8,33.8,96,86,71,30.10,29.89,15,6,22,0.00
2019-3-1,48.9,45.3,41.8,46.6,41.5,36.8,96,89,78,30.08,29.84,9,5,13,0.06
2019-3-2,53.2,46.2,39.3,47.9,42.9,36.7,96,89,72,30.07,29.81,14,6,17,0.02
2019-3-3,54.7,51.2,47.6,50.2,47.6,44.1,95,89,78,29.82,29.37,15,12,21,0.32
2019-3-4,55.2,48.5,41.8,48.0,40.6,35.0,89,75,62,29.54,29.11,25,14,36,0.20
2019-3-5,51.4,45.8,40.3,40.7,38.5,36.9,92,80,59,29.76,29.54,16,10,25,0.03
2019-3-6,55.3,49.9,44.6,48.0,44.4,41.0,94,81,62,29.74,29.28,12,8,19,0.02
2019-3-7,52.2,48.5,44.7,48.0,43.0,38.9,92,82,65,29.47,29.07,22,14,31,0.43
2019-3-8,50.3,46.8,43.3,42.5,39.3,34.8,92,78,57,29.93,29.48,16,9,24,0.13
2019-3-9,53.5,48.6,43.7,45.7,42.7,37.5,95,83,64,29.94,29.72,28,12,42,0.26
2019-3-10,53.3,45.2,37.1,48.9,39.8,34.2,97,87,74,29.93,29.45,29,10,41,0.51
2019-3-11,46.5,41.6,36.7,37.1,34.7,33.0,91,78,65,30.25,29.89,19,11,34,0.08
2019-3-12,50.5,42.7,34.9,40.8,35.0,31.7,91,74,50,30.25,29.47,24,12,30,0.12
2019-3-13,46.2,43.0,39.8,42.2,39.1,36.1,91,85,78,29.79,29.57,21,14,26,0.32
2019-3-14,51.7,47.0,42.3,46.4,41.2,38.2,94,83,69,29.81,29.37,19,11,22,0.43
2019-3-15,56.3,49.9,43.5,50.6,45.2,39.0,96,87,77,29.78,29.58,19,10,28,0.39
2019-3-16,52.6,48.6,44.6,47.8,44.7,42.0,97,83,72,29.81,29.50,19,11,23,0.23
2019-3-17,52.6,45.5,38.4,45.2,39.0,34.0,93,79,62,29.83,29.41,19,11,25,0.30
2019-3-18,48.6,40.2,31.7,38.5,34.7,29.6,93,79,52,30.25,29.83,14,7,20,0.05
2019-3-19,53.1,41.0,28.9,41.2,34.7,27.6,96,83,57,30.44,30.25,7,2,9,0.00
2019-3-20,54.1,44.3,34.6,48.0,43.2,33.1,96,87,78,30.55,30.44,9,4,11,0.00
2019-3-21,58.9,48.1,37.3,49.9,44.3,36.3,98,86,64,30.56,30.48,8,3,10,0.00
2019-3-22,68.9,54.5,40.1,50.7,43.0,38.8,98,78,36,30.48,30.28,9,3,10,0.01
2019-3-23,53.2,47.5,41.8,48.0,44.3,38.2,95,86,77,30.45,30.34,8,4,9,0.00
2019-3-24,52.3,43.7,35.0,39.5,35.9,29.7,96,76,43,30.44,30.23,8,4,16,0.00
2019-3-25,49.9,44.7,39.4,41.1,37.9,35.0,89,77,62,30.43,30.13,15,9,26,0.11
2019-3-26,49.7,45.3,40.9,40.4,38.0,34.6,89,75,62,30.48,30.43,8,5,13,0.00
2019-3-27,53.4,45.7,38.0,43.1,40.0,36.2,97,78,62,30.56,30.47,7,3,8,0.00
2019-3-28,54.8,46.8,38.9,45.5,42.2,37.0,95,80,62,30.59,30.53,4,2,5,0.00
2019-3-29,65.6,49.3,33.0,47.7,41.2,32.0,98,78,48,30.54,30.26,6,2,8,0.00
2019-3-30,65.2,51.1,37.1,47.7,42.4,35.8,98,74,45,30.26,30.11,10,3,14,0.00
2019-3-31,54.5,48.7,42.8,44.0,40.9,32.5,90,76,58,30.28,30.15,12,7,16,0.00
2019-4-1,59.3,46.8,34.2,39.5,34.3,28.7,81,65,45,30.29,29.96,10,6,13,0.00
2019-4-2,61.9,49.0,36.1,51.2,42.2,33.8,95,83,62,29.96,29.55,20,5,20,0.14
2019-4-3,50.5,45.0,39.5,44.3,40.0,36.8,95,83,63,29.60,29.50,9,5,13,0.02
2019-4-4,50.7,42.8,34.9,41.6,37.7,33.6,100,85,67,29.66,29.48,7,2,11,0.00
2019-4-5,53.6,43.2,32.8,43.1,38.6,31.3,100,81,58,29.75,29.66,9,4,13,0.00
2019-4-6,61.3,53.2,45.2,49.1,45.0,41.5,95,79,54,29.70,29.64,10,5,14,0.00
2019-4-7,69.9,57.9,45.9,51.8,46.9,43.7,95,68,41,29.74,29.63,13,5,18,0.00
2019-4-8,69.8,55.9,42.0,52.8,45.4,39.3,94,72,43,29.85,29.73,10,3,11,0.00
2019-4-9,59.3,51.3,43.4,47.4,41.5,34.9,86,70,52,29.92,29.85,11,7,15,0.00
2019-4-10,54.5,45.7,36.9,36.0,32.2,27.0,76,60,42,30.15,29.92,12,9,18,0.00
2019-4-11,52.1,42.0,31.9,34.8,29.7,27.5,85,62,39,30.25,30.15,10,6,15,0.00
2019-4-12,46.6,41.0,35.5,31.2,28.2,25.5,72,59,45,30.30,30.25,10,5,15,0.00
2019-4-13,46.6,38.2,29.7,33.1,29.3,23.9,91,74,43,30.32,30.22,11,5,15,0.00
2019-4-14,52.3,41.7,31.0,36.2,31.6,28.9,95,71,42,30.32,30.23,11,6,15,0.01
2019-4-15,63.9,48.7,33.5,44.6,38.0,31.5,95,68,43,30.34,30.06,11,6,18,0.00
2019-4-16,68.5,55.1,41.7,46.4,38.1,33.3,79,55,32,30.07,29.95,11,6,15,0.00
2019-4-17,60.5,53.0,45.4,51.9,47.6,42.7,92,80,68,30.20,30.07,8,3,11,0.00
2019-4-18,72.4,61.6,50.8,47.2,42.1,37.6,84,52,32,30.28,30.20,12,7,19,0.00
2019-4-19,76.2,62.8,49.5,43.6,40.5,38.0,65,45,28,30.36,30.29,10,5,13,0.00
2019-4-20,77.0,61.0,45.0,44.7,40.8,35.6,85,48,23,30.40,30.27,9,4,14,0.00
2019-4-21,76.0,61.0,46.1,43.2,38.7,35.6,71,44,24,30.30,29.95,7,4,10,0.00
2019-4-22,79.2,61.0,42.8,43.8,39.8,34.3,86,47,21,29.95,29.63,13,6,18,0.00
2019-4-23,70.8,60.1,49.3,49.2,42.0,33.8,75,52,36,29.64,29.41,11,7,19,0.00
2019-4-24,78.7,64.8,50.8,54.4,49.0,44.6,93,67,33,29.64,29.41,18,7,28,0.36
2019-4-25,64.9,55.8,46.6,52.0,48.2,44.5,94,81,59,29.78,29.63,13,6,23,0.03
2019-4-26,62.0,55.0,48.1,49.7,46.2,42.5,90,76,50,29.93,29.77,9,4,15,0.00
2019-4-27,55.6,50.7,45.7,47.5,43.2,38.7,93,79,58,29.95,29.82,15,7,25,0.19
2019-4-28,56.9,49.6,42.3,45.8,42.4,39.9,91,78,60,30.18,29.94,8,4,17,0.00
2019-4-29,61.8,48.7,35.6,46.3,41.7,34.3,98,75,48,30.28,30.18,8,3,12,0.00
2019-4-30,54.8,48.6,42.4,48.1,45.6,39.7,90,82,75,30.25,30.15,6,4,9,0.00
2019-5-1,60.5,48.1,35.7,46.4,42.1,34.5,100,80,57,30.15,29.96,6,2,9,0.00
2019-5-2,59.2,48.1,37.0,50.5,44.2,35.7,97,86,67,29.96,29.80,11,4,14,0.01
2019-5-3,52.9,48.0,43.1,45.1,39.3,33.2,92,73,48,29.94,29.85,9,4,11,0.02
2019-5-4,50.1,44.8,39.6,40.2,36.6,30.9,91,76,50,30.04,29.81,13,6,16,0.23
2019-5-5,52.4,44.5,36.6,40.7,36.8,33.2,94,77,49,30.18,30.04,12,5,20,0.03
2019-5-6,51.5,43.5,35.5,43.4,37.9,32.9,92,80,56,30.17,30.09,11,5,14,0.02
2019-5-7,57.2,47.6,38.0,42.1,38.6,35.5,96,72,46,30.12,29.87,7,2,10,0.00
2019-5-8,55.4,49.8,44.2,52.4,44.3,37.6,94,81,70,29.87,29.37,9,5,15,0.06
2019-5-9,62.0,52.7,43.3,50.5,46.9,41.2,93,80,61,29.60,29.40,11,4,12,0.01
2019-5-10,56.6,52.8,48.9,48.4,46.0,43.0,93,80,64,29.88,29.60,8,4,11,0.06
2019-5-11,60.2,52.9,45.6,47.1,43.2,37.7,95,73,49,30.30,29.82,10,5,16,0.00
2019-5-12,58.7,48.1,37.5,44.1,38.6,27.6,92,68,31,30.66,30.31,8,4,14,0.02
2019-5-13,62.0,48.3,34.6,41.1,35.2,26.5,95,62,29,30.72,30.60,7,4,11,0.00
2019-5-14,62.3,51.2,40.1,41.6,37.8,35.3,92,62,39,30.62,30.39,8,4,12,0.00
2019-5-15,63.1,51.9,40.8,39.6,34.9,28.0,87,53,29,30.39,30.20,10,4,16,0.00
2019-5-16,64.4,52.6,40.8,45.4,39.4,34.4,87,61,43,30.20,29.89,9,4,15,0.00
2019-5-17,54.8,51.9,49.1,49.6,46.4,44.7,91,81,71,29.89,29.70,7,3,11,0.00
2019-5-18,72.3,59.7,47.0,54.5,50.6,45.5,97,74,48,29.72,29.67,6,2,7,0.00
2019-5-19,71.3,63.0,54.6,60.4,55.0,51.8,95,82,53,29.72,29.63,12,4,12,0.21
2019-5-20,58.7,55.6,52.5,54.9,53.0,51.0,95,91,85,29.85,29.70,9,5,11,0.00
2019-5-21,56.0,53.3,50.7,51.9,50.8,49.6,97,93,85,30.05,29.83,10,6,15,0.00
2019-5-22,67.5,58.7,49.8,50.9,46.4,40.8,94,69,41,30.11,30.05,8,4,17,0.00
2019-5-23,71.5,56.5,41.4,49.3,44.0,37.7,98,64,30,30.11,29.99,12,3,15,0.00
2019-5-24,73.1,60.1,47.1,52.1,46.4,32.2,94,62,30,30.01,29.94,10,4,16,0.00
2019-5-25,66.4,55.9,45.4,50.7,47.7,43.5,96,74,53,30.07,30.01,5,2,7,0.00
2019-5-26,71.6,59.5,47.5,57.3,52.3,45.3,94,75,56,30.03,29.81,15,7,19,0.00
2019-6-20,70.2,64.3,58.4,61.2,57.3,50.3,93,79,60,29.99,29.75,11,5,17,0.00
2019-6-21,68.6,59.2,49.7,55.3,50.7,46.1,94,73,49,30.18,29.99,8,4,12,0.00
2019-6-22,74.9,61.8,48.7,57.7,53.1,46.8,94,71,49,30.19,30.06,6,2,11,0.00
2019-6-23,85.1,70.1,55.0,64.5,58.6,52.4,93,65,45,30.09,29.99,8,3,12,0.00
2019-6-24,89.9,78.2,66.4,69.9,62.8,55.5,81,60,44,30.05,29.99,8,3,14,0.00
2019-6-25,94.6,81.5,68.4,72.5,67.1,62.6,83,64,42,30.10,29.97,9,4,13,0.00
2019-6-26,76.6,70.2,63.8,67.5,63.7,57.5,92,80,67,30.31,30.10,7,4,15,0.00
2019-6-27,75.5,66.7,57.8,59.0,54.7,51.7,89,72,51,30.37,30.30,8,4,12,0.00
2019-6-28,77.6,64.4,51.3,57.5,53.1,49.0,93,69,43,30.32,30.16,6,2,8,0.00
2019-6-29,92.1,74.2,56.3,62.2,56.1,51.9,86,57,26,30.17,29.89,5,2,9,0.00
2019-6-30,78.6,69.8,61.0,66.5,58.7,54.2,83,66,47,29.99,29.83,11,5,16,0.00
2019-7-1,72.6,65.4,58.2,58.8,54.5,50.1,90,69,50,30.15,29.97,11,6,18,0.00
2019-7-2,72.3,63.9,55.4,56.4,51.0,46.6,88,64,41,30.21,30.14,7,3,11,0.00
2019-7-3,69.6,60.7,51.8,52.7,49.1,44.4,92,67,41,30.29,30.21,8,3,13,0.00
2019-7-4,74.3,60.2,46.2,55.7,48.6,43.2,93,65,41,30.29,30.11,5,2,7,0.00
2019-7-5,75.5,67.7,59.9,59.3,54.4,48.0,80,65,39,30.11,29.95,9,4,12,0.00
2019-7-6,76.6,64.2,51.8,60.2,55.4,49.8,95,77,55,29.96,29.81,11,4,15,0.06
2019-7-7,65.6,57.7,49.8,56.4,49.9,45.3,96,73,49,30.05,29.90,8,3,11,0.01
2019-7-8,63.1,55.3,47.5,50.9,48.2,44.3,93,74,62,30.14,30.05,8,3,13,0.00
2019-7-9,69.3,58.3,47.3,51.0,46.4,39.6,94,66,42,30.16,30.10,7,3,12,0.00
2019-7-10,68.7,58.5,48.3,57.5,50.1,42.9,95,77,41,30.15,30.00,5,1,7,0.13
2019-7-11,75.9,67.0,58.1,62.6,58.2,54.7,98,76,50,30.00,29.84,11,3,14,0.00
2019-7-12,67.5,62.3,57.1,62.7,58.1,55.2,95,87,76,29.96,29.83,10,3,16,0.16
2019-7-13,67.2,63.0,58.9,61.2,58.0,54.2,93,86,76,30.12,29.96,7,3,13,0.08
2019-7-14,65.2,59.7,54.2,57.3,53.9,50.4,93,81,69,30.13,30.10,7,2,10,0.01
2019-7-15,65.2,58.1,51.0,55.6,53.0,49.0,96,82,64,30.13,30.09,7,2,11,0.01
2019-7-16,68.3,59.4,50.5,55.5,52.4,48.5,95,78,60,30.11,30.03,5,2,8,0.00
2019-7-17,75.7,62.1,48.5,59.5,54.2,47.1,98,76,48,30.03,29.89,3,1,7,0.00
2019-7-18,74.6,65.9,57.3,59.4,56.4,51.6,92,72,49,29.89,29.83,11,4,17,0.00
2019-7-19,78.1,69.1,60.0,60.2,57.2,54.3,90,70,45,29.93,29.88,8,3,10,0.00
2019-7-20,76.7,68.8,61.0,66.4,60.1,55.2,85,74,61,29.93,29.78,9,4,10,0.02
2019-7-21,74.4,66.3,58.3,61.3,56.9,54.1,90,72,54,30.20,29.93,8,4,10,0.00
2019-7-22,58.2,57.8,57.4,54.6,54.3,53.9,88,88,87,30.20,30.20,0,0,0,0.00